sensor_id;sensor_type;location;lat;lon;timestamp;P1;durP1;ratioP1;P2;durP2;ratioP2
19621;SDS011;9958;33.196;-97.114;2023-04-24T00:01:56;3.67;;;1.40;;
19621;SDS011;9958;33.196;-97.114;2023-04-24T00:04:24;1.88;;;1.65;;
19621;SDS011;9958;33.196;-97.114;2023-04-24T00:06:53;2.08;;;1.45;;
19621;SDS011;9958;33.196;-97.114;2023-04-24T00:09:22;1.70;;;1.45;;
19621;SDS011;9958;33.196;-97.114;2023-04-24T00:11:52;1.50;;;1.27;;
19621;SDS011;9958;33.196;-97.114;2023-04-24T00:14:21;2.05;;;1.30;;
19621;SDS011;9958;33.196;-97.114;2023-04-24T00:16:49;2.10;;;1.30;;
19621;SDS011;9958;33.196;-97.114;2023-04-24T00:19:18;2.25;;;1.88;;
19621;SDS011;9958;33.196;-97.114;2023-04-24T00:21:48;4.20;;;1.92;;
19621;SDS011;9958;33.196;-97.114;2023-04-24T00:24:16;3.67;;;1.40;;
19621;SDS011;9958;33.196;-97.114;2023-04-24T00:26:45;1.70;;;1.60;;
19621;SDS011;9958;33.196;-97.114;2023-04-24T00:29:15;1.85;;;1.63;;
19621;SDS011;9958;33.196;-97.114;2023-04-24T00:31:43;1.50;;;1.40;;
19621;SDS011;9958;33.196;-97.114;2023-04-24T00:34:11;1.30;;;1.17;;
19621;SDS011;9958;33.196;-97.114;2023-04-24T00:36:40;1.10;;;1.10;;
19621;SDS011;9958;33.196;-97.114;2023-04-24T00:39:08;1.40;;;1.33;;
19621;SDS011;9958;33.196;-97.114;2023-04-24T00:41:36;1.42;;;1.30;;
19621;SDS011;9958;33.196;-97.114;2023-04-24T00:44:05;1.60;;;1.50;;
19621;SDS011;9958;33.196;-97.114;2023-04-24T00:46:35;1.95;;;1.50;;
19621;SDS011;9958;33.196;-97.114;2023-04-24T00:49:04;2.08;;;1.23;;
19621;SDS011;9958;33.196;-97.114;2023-04-24T00:51:33;1.42;;;1.33;;
19621;SDS011;9958;33.196;-97.114;2023-04-24T00:54:02;1.70;;;1.40;;
19621;SDS011;9958;33.196;-97.114;2023-04-24T00:56:30;2.17;;;1.40;;
19621;SDS011;9958;33.196;-97.114;2023-04-24T00:58:59;3.42;;;1.60;;
19621;SDS011;9958;33.196;-97.114;2023-04-24T01:01:28;2.03;;;1.35;;
19621;SDS011;9958;33.196;-97.114;2023-04-24T01:03:59;2.53;;;1.17;;
19621;SDS011;9958;33.196;-97.114;2023-04-24T01:06:28;1.50;;;1.40;;
19621;SDS011;9958;33.196;-97.114;2023-04-24T01:08:57;1.35;;;1.20;;
19621;SDS011;9958;33.196;-97.114;2023-04-24T01:11:27;1.33;;;1.27;;
19621;SDS011;9958;33.196;-97.114;2023-04-24T01:13:56;4.30;;;1.63;;
19621;SDS011;9958;33.196;-97.114;2023-04-24T01:16:24;2.42;;;1.42;;
19621;SDS011;9958;33.196;-97.114;2023-04-24T01:18:53;1.45;;;1.35;;
19621;SDS011;9958;33.196;-97.114;2023-04-24T01:21:23;1.48;;;1.23;;
19621;SDS011;9958;33.196;-97.114;2023-04-24T01:23:54;1.40;;;1.30;;
19621;SDS011;9958;33.196;-97.114;2023-04-24T01:26:23;4.90;;;1.80;;
19621;SDS011;9958;33.196;-97.114;2023-04-24T01:28:51;1.52;;;1.40;;
19621;SDS011;9958;33.196;-97.114;2023-04-24T01:31:20;2.58;;;1.48;;
19621;SDS011;9958;33.196;-97.114;2023-04-24T01:33:48;2.10;;;1.98;;
19621;SDS011;9958;33.196;-97.114;2023-04-24T01:36:18;1.40;;;1.30;;
19621;SDS011;9958;33.196;-97.114;2023-04-24T01:38:46;1.58;;;1.40;;
19621;SDS011;9958;33.196;-97.114;2023-04-24T01:41:16;4.03;;;1.45;;
19621;SDS011;9958;33.196;-97.114;2023-04-24T01:43:44;2.50;;;1.80;;
19621;SDS011;9958;33.196;-97.114;2023-04-24T01:46:13;1.60;;;1.50;;
19621;SDS011;9958;33.196;-97.114;2023-04-24T01:48:41;2.05;;;1.33;;
19621;SDS011;9958;33.196;-97.114;2023-04-24T01:51:09;1.60;;;1.30;;
19621;SDS011;9958;33.196;-97.114;2023-04-24T01:53:38;2.20;;;1.40;;
19621;SDS011;9958;33.196;-97.114;2023-04-24T01:56:06;1.33;;;1.20;;
19621;SDS011;9958;33.196;-97.114;2023-04-24T01:58:36;1.75;;;1.27;;
19621;SDS011;9958;33.196;-97.114;2023-04-24T02:01:06;1.60;;;1.50;;
19621;SDS011;9958;33.196;-97.114;2023-04-24T02:03:34;2.63;;;1.50;;
19621;SDS011;9958;33.196;-97.114;2023-04-24T02:06:02;3.47;;;1.77;;
19621;SDS011;9958;33.196;-97.114;2023-04-24T02:08:31;2.13;;;1.80;;
19621;SDS011;9958;33.196;-97.114;2023-04-24T02:10:59;1.60;;;1.50;;
19621;SDS011;9958;33.196;-97.114;2023-04-24T02:13:28;1.50;;;1.40;;
19621;SDS011;9958;33.196;-97.114;2023-04-24T02:15:58;4.07;;;1.33;;
19621;SDS011;9958;33.196;-97.114;2023-04-24T02:18:26;6.03;;;1.65;;
19621;SDS011;9958;33.196;-97.114;2023-04-24T02:20:54;4.30;;;1.60;;
19621;SDS011;9958;33.196;-97.114;2023-04-24T02:23:23;2.08;;;1.77;;
19621;SDS011;9958;33.196;-97.114;2023-04-24T02:25:52;1.90;;;1.52;;
19621;SDS011;9958;33.196;-97.114;2023-04-24T02:28:21;2.40;;;2.20;;
19621;SDS011;9958;33.196;-97.114;2023-04-24T02:30:49;3.45;;;2.15;;
19621;SDS011;9958;33.196;-97.114;2023-04-24T02:33:20;2.85;;;1.90;;
19621;SDS011;9958;33.196;-97.114;2023-04-24T02:35:48;3.60;;;2.35;;
19621;SDS011;9958;33.196;-97.114;2023-04-24T02:38:16;2.78;;;2.20;;
19621;SDS011;9958;33.196;-97.114;2023-04-24T02:40:44;2.72;;;2.30;;
19621;SDS011;9958;33.196;-97.114;2023-04-24T02:43:13;6.57;;;3.03;;
19621;SDS011;9958;33.196;-97.114;2023-04-24T02:45:41;3.58;;;2.38;;
19621;SDS011;9958;33.196;-97.114;2023-04-24T02:48:09;6.97;;;2.83;;
19621;SDS011;9958;33.196;-97.114;2023-04-24T02:50:39;4.05;;;2.58;;
19621;SDS011;9958;33.196;-97.114;2023-04-24T02:53:08;3.78;;;2.50;;
19621;SDS011;9958;33.196;-97.114;2023-04-24T02:55:36;3.38;;;2.38;;
19621;SDS011;9958;33.196;-97.114;2023-04-24T02:58:04;3.22;;;2.20;;
19621;SDS011;9958;33.196;-97.114;2023-04-24T03:00:33;6.28;;;2.90;;
19621;SDS011;9958;33.196;-97.114;2023-04-24T03:03:01;3.80;;;2.22;;
19621;SDS011;9958;33.196;-97.114;2023-04-24T03:05:30;2.90;;;2.22;;
19621;SDS011;9958;33.196;-97.114;2023-04-24T03:08:00;5.65;;;2.40;;
19621;SDS011;9958;33.196;-97.114;2023-04-24T03:10:29;2.53;;;2.33;;
19621;SDS011;9958;33.196;-97.114;2023-04-24T03:12:57;4.30;;;2.13;;
19621;SDS011;9958;33.196;-97.114;2023-04-24T03:15:26;3.97;;;2.10;;
19621;SDS011;9958;33.196;-97.114;2023-04-24T03:17:54;3.15;;;2.20;;
19621;SDS011;9958;33.196;-97.114;2023-04-24T03:20:23;2.42;;;2.10;;
19621;SDS011;9958;33.196;-97.114;2023-04-24T03:22:51;2.22;;;2.10;;
19621;SDS011;9958;33.196;-97.114;2023-04-24T03:25:21;2.45;;;2.03;;
19621;SDS011;9958;33.196;-97.114;2023-04-24T03:27:49;2.53;;;1.80;;
19621;SDS011;9958;33.196;-97.114;2023-04-24T03:30:18;2.88;;;2.13;;
19621;SDS011;9958;33.196;-97.114;2023-04-24T03:32:46;4.25;;;2.10;;
19621;SDS011;9958;33.196;-97.114;2023-04-24T03:35:14;2.70;;;2.50;;
19621;SDS011;9958;33.196;-97.114;2023-04-24T03:37:43;3.38;;;2.13;;
19621;SDS011;9958;33.196;-97.114;2023-04-24T03:40:11;3.13;;;1.80;;
19621;SDS011;9958;33.196;-97.114;2023-04-24T03:42:41;6.50;;;2.20;;
19621;SDS011;9958;33.196;-97.114;2023-04-24T03:45:10;2.30;;;2.03;;
19621;SDS011;9958;33.196;-97.114;2023-04-24T03:47:38;1.95;;;1.73;;
19621;SDS011;9958;33.196;-97.114;2023-04-24T03:50:06;2.60;;;2.35;;
19621;SDS011;9958;33.196;-97.114;2023-04-24T03:52:35;2.10;;;1.90;;
19621;SDS011;9958;33.196;-97.114;2023-04-24T03:55:04;2.90;;;1.95;;
19621;SDS011;9958;33.196;-97.114;2023-04-24T03:57:33;2.72;;;2.47;;
19621;SDS011;9958;33.196;-97.114;2023-04-24T04:00:03;3.03;;;1.88;;
19621;SDS011;9958;33.196;-97.114;2023-04-24T04:02:34;2.70;;;2.10;;
19621;SDS011;9958;33.196;-97.114;2023-04-24T04:05:02;3.08;;;2.05;;
19621;SDS011;9958;33.196;-97.114;2023-04-24T04:07:31;3.00;;;1.70;;
19621;SDS011;9958;33.196;-97.114;2023-04-24T04:09:59;2.72;;;1.80;;
19621;SDS011;9958;33.196;-97.114;2023-04-24T04:12:27;2.58;;;1.90;;
19621;SDS011;9958;33.196;-97.114;2023-04-24T04:14:56;2.88;;;2.20;;
19621;SDS011;9958;33.196;-97.114;2023-04-24T04:17:25;3.13;;;2.40;;
19621;SDS011;9958;33.196;-97.114;2023-04-24T04:19:54;3.78;;;1.98;;
19621;SDS011;9958;33.196;-97.114;2023-04-24T04:22:22;2.20;;;2.00;;
19621;SDS011;9958;33.196;-97.114;2023-04-24T04:24:51;2.67;;;2.08;;
19621;SDS011;9958;33.196;-97.114;2023-04-24T04:27:19;7.07;;;2.20;;
19621;SDS011;9958;33.196;-97.114;2023-04-24T04:29:47;2.75;;;2.38;;
19621;SDS011;9958;33.196;-97.114;2023-04-24T04:32:16;4.40;;;2.38;;
19621;SDS011;9958;33.196;-97.114;2023-04-24T04:34:45;3.60;;;2.35;;
19621;SDS011;9958;33.196;-97.114;2023-04-24T04:37:14;4.47;;;2.33;;
19621;SDS011;9958;33.196;-97.114;2023-04-24T04:39:43;2.78;;;1.98;;
19621;SDS011;9958;33.196;-97.114;2023-04-24T04:42:11;4.70;;;2.40;;
19621;SDS011;9958;33.196;-97.114;2023-04-24T04:44:41;6.13;;;2.40;;
19621;SDS011;9958;33.196;-97.114;2023-04-24T04:47:10;2.92;;;2.10;;
19621;SDS011;9958;33.196;-97.114;2023-04-24T04:49:38;2.45;;;1.92;;
19621;SDS011;9958;33.196;-97.114;2023-04-24T04:52:08;2.72;;;2.00;;
19621;SDS011;9958;33.196;-97.114;2023-04-24T04:54:37;3.33;;;2.22;;
19621;SDS011;9958;33.196;-97.114;2023-04-24T04:57:05;3.60;;;2.17;;
19621;SDS011;9958;33.196;-97.114;2023-04-24T04:59:33;3.40;;;2.22;;
19621;SDS011;9958;33.196;-97.114;2023-04-24T05:02:02;2.65;;;2.00;;
19621;SDS011;9958;33.196;-97.114;2023-04-24T05:04:30;3.67;;;2.58;;
19621;SDS011;9958;33.196;-97.114;2023-04-24T05:06:59;2.97;;;2.10;;
19621;SDS011;9958;33.196;-97.114;2023-04-24T05:09:29;4.22;;;2.70;;
19621;SDS011;9958;33.196;-97.114;2023-04-24T05:11:57;4.35;;;2.08;;
19621;SDS011;9958;33.196;-97.114;2023-04-24T05:14:25;3.97;;;2.40;;
19621;SDS011;9958;33.196;-97.114;2023-04-24T05:16:54;2.22;;;1.95;;
19621;SDS011;9958;33.196;-97.114;2023-04-24T05:19:22;2.25;;;2.05;;
19621;SDS011;9958;33.196;-97.114;2023-04-24T05:21:50;3.45;;;2.10;;
19621;SDS011;9958;33.196;-97.114;2023-04-24T05:24:19;3.03;;;2.25;;
19621;SDS011;9958;33.196;-97.114;2023-04-24T05:26:48;2.53;;;2.30;;
19621;SDS011;9958;33.196;-97.114;2023-04-24T05:29:17;2.53;;;2.05;;
19621;SDS011;9958;33.196;-97.114;2023-04-24T05:31:46;3.83;;;2.42;;
19621;SDS011;9958;33.196;-97.114;2023-04-24T05:34:15;4.25;;;2.22;;
19621;SDS011;9958;33.196;-97.114;2023-04-24T05:36:43;3.00;;;2.30;;
19621;SDS011;9958;33.196;-97.114;2023-04-24T05:39:11;2.40;;;2.20;;
19621;SDS011;9958;33.196;-97.114;2023-04-24T05:41:40;3.42;;;2.30;;
19621;SDS011;9958;33.196;-97.114;2023-04-24T05:44:10;3.08;;;2.38;;
19621;SDS011;9958;33.196;-97.114;2023-04-24T05:46:38;3.28;;;2.55;;
19621;SDS011;9958;33.196;-97.114;2023-04-24T05:49:06;3.90;;;2.50;;
19621;SDS011;9958;33.196;-97.114;2023-04-24T05:51:35;2.58;;;1.90;;
19621;SDS011;9958;33.196;-97.114;2023-04-24T05:54:04;2.80;;;2.50;;
19621;SDS011;9958;33.196;-97.114;2023-04-24T05:56:33;2.83;;;1.98;;
19621;SDS011;9958;33.196;-97.114;2023-04-24T05:59:01;3.28;;;2.28;;
19621;SDS011;9958;33.196;-97.114;2023-04-24T06:01:31;2.53;;;1.92;;
19621;SDS011;9958;33.196;-97.114;2023-04-24T06:03:59;2.22;;;1.73;;
19621;SDS011;9958;33.196;-97.114;2023-04-24T06:06:28;3.63;;;2.88;;
19621;SDS011;9958;33.196;-97.114;2023-04-24T06:08:58;3.15;;;2.53;;
19621;SDS011;9958;33.196;-97.114;2023-04-24T06:11:26;2.53;;;2.08;;
19621;SDS011;9958;33.196;-97.114;2023-04-24T06:13:54;3.03;;;2.08;;
19621;SDS011;9958;33.196;-97.114;2023-04-24T06:16:23;6.03;;;2.10;;
19621;SDS011;9958;33.196;-97.114;2023-04-24T06:18:53;3.15;;;2.42;;
19621;SDS011;9958;33.196;-97.114;2023-04-24T06:21:21;4.40;;;2.15;;
19621;SDS011;9958;33.196;-97.114;2023-04-24T06:23:49;4.32;;;2.50;;
19621;SDS011;9958;33.196;-97.114;2023-04-24T06:26:18;2.95;;;1.80;;
19621;SDS011;9958;33.196;-97.114;2023-04-24T06:28:46;3.08;;;1.85;;
19621;SDS011;9958;33.196;-97.114;2023-04-24T06:31:15;2.78;;;2.17;;
19621;SDS011;9958;33.196;-97.114;2023-04-24T06:33:44;3.20;;;2.38;;
19621;SDS011;9958;33.196;-97.114;2023-04-24T06:36:13;2.70;;;2.30;;
19621;SDS011;9958;33.196;-97.114;2023-04-24T06:38:42;2.72;;;2.25;;
19621;SDS011;9958;33.196;-97.114;2023-04-24T06:41:10;2.45;;;2.17;;
19621;SDS011;9958;33.196;-97.114;2023-04-24T06:43:39;3.20;;;2.33;;
19621;SDS011;9958;33.196;-97.114;2023-04-24T06:46:07;2.03;;;1.83;;
19621;SDS011;9958;33.196;-97.114;2023-04-24T06:48:35;2.72;;;1.90;;
19621;SDS011;9958;33.196;-97.114;2023-04-24T06:51:04;2.45;;;2.17;;
19621;SDS011;9958;33.196;-97.114;2023-04-24T06:53:34;3.63;;;1.88;;
19621;SDS011;9958;33.196;-97.114;2023-04-24T06:56:02;2.17;;;1.98;;
19621;SDS011;9958;33.196;-97.114;2023-04-24T06:58:31;2.05;;;1.83;;
19621;SDS011;9958;33.196;-97.114;2023-04-24T07:00:59;2.20;;;2.05;;
19621;SDS011;9958;33.196;-97.114;2023-04-24T07:03:27;2.40;;;2.20;;
19621;SDS011;9958;33.196;-97.114;2023-04-24T07:05:56;4.70;;;2.17;;
19621;SDS011;9958;33.196;-97.114;2023-04-24T07:08:24;5.50;;;2.35;;
19621;SDS011;9958;33.196;-97.114;2023-04-24T07:10:55;3.00;;;2.00;;
19621;SDS011;9958;33.196;-97.114;2023-04-24T07:13:23;3.42;;;2.33;;
19621;SDS011;9958;33.196;-97.114;2023-04-24T07:15:53;3.58;;;2.47;;
19621;SDS011;9958;33.196;-97.114;2023-04-24T07:18:21;2.85;;;1.92;;
19621;SDS011;9958;33.196;-97.114;2023-04-24T07:20:50;2.72;;;2.17;;
19621;SDS011;9958;33.196;-97.114;2023-04-24T07:23:19;4.20;;;2.38;;
19621;SDS011;9958;33.196;-97.114;2023-04-24T07:25:47;3.55;;;2.30;;
19621;SDS011;9958;33.196;-97.114;2023-04-24T07:28:17;2.72;;;2.05;;
19621;SDS011;9958;33.196;-97.114;2023-04-24T07:30:45;2.47;;;2.25;;
19621;SDS011;9958;33.196;-97.114;2023-04-24T07:33:14;3.25;;;1.95;;
19621;SDS011;9958;33.196;-97.114;2023-04-24T07:35:42;5.03;;;2.85;;
19621;SDS011;9958;33.196;-97.114;2023-04-24T07:38:10;5.07;;;2.50;;
19621;SDS011;9958;33.196;-97.114;2023-04-24T07:40:39;2.30;;;2.10;;
19621;SDS011;9958;33.196;-97.114;2023-04-24T07:43:07;4.13;;;2.33;;
19621;SDS011;9958;33.196;-97.114;2023-04-24T07:45:37;2.72;;;2.05;;
19621;SDS011;9958;33.196;-97.114;2023-04-24T07:48:06;3.28;;;2.10;;
19621;SDS011;9958;33.196;-97.114;2023-04-24T07:50:34;2.47;;;1.95;;
19621;SDS011;9958;33.196;-97.114;2023-04-24T07:53:02;3.35;;;2.13;;
19621;SDS011;9958;33.196;-97.114;2023-04-24T07:55:31;2.78;;;2.20;;
19621;SDS011;9958;33.196;-97.114;2023-04-24T07:57:59;2.85;;;2.47;;
19621;SDS011;9958;33.196;-97.114;2023-04-24T08:00:27;2.90;;;2.20;;
19621;SDS011;9958;33.196;-97.114;2023-04-24T08:02:57;2.42;;;1.95;;
19621;SDS011;9958;33.196;-97.114;2023-04-24T08:05:26;3.00;;;2.70;;
19621;SDS011;9958;33.196;-97.114;2023-04-24T08:07:54;2.40;;;2.15;;
19621;SDS011;9958;33.196;-97.114;2023-04-24T08:10:24;3.72;;;2.42;;
19621;SDS011;9958;33.196;-97.114;2023-04-24T08:12:52;3.42;;;2.40;;
19621;SDS011;9958;33.196;-97.114;2023-04-24T08:15:21;4.55;;;2.63;;
19621;SDS011;9958;33.196;-97.114;2023-04-24T08:17:50;2.78;;;2.10;;
19621;SDS011;9958;33.196;-97.114;2023-04-24T08:20:20;3.33;;;2.50;;
19621;SDS011;9958;33.196;-97.114;2023-04-24T08:22:48;5.72;;;3.08;;
19621;SDS011;9958;33.196;-97.114;2023-04-24T08:25:16;4.18;;;2.92;;
19621;SDS011;9958;33.196;-97.114;2023-04-24T08:27:45;2.47;;;2.28;;
19621;SDS011;9958;33.196;-97.114;2023-04-24T08:30:13;4.55;;;2.42;;
19621;SDS011;9958;33.196;-97.114;2023-04-24T08:32:42;2.65;;;2.08;;
19621;SDS011;9958;33.196;-97.114;2023-04-24T08:35:10;4.15;;;2.55;;
19621;SDS011;9958;33.196;-97.114;2023-04-24T08:37:40;3.10;;;2.75;;
19621;SDS011;9958;33.196;-97.114;2023-04-24T08:40:12;3.88;;;2.70;;
19621;SDS011;9958;33.196;-97.114;2023-04-24T08:42:41;4.18;;;2.78;;
19621;SDS011;9958;33.196;-97.114;2023-04-24T08:45:10;3.33;;;2.72;;
19621;SDS011;9958;33.196;-97.114;2023-04-24T08:47:39;3.58;;;2.22;;
19621;SDS011;9958;33.196;-97.114;2023-04-24T08:50:09;3.00;;;2.40;;
19621;SDS011;9958;33.196;-97.114;2023-04-24T08:52:40;2.83;;;1.92;;
19621;SDS011;9958;33.196;-97.114;2023-04-24T08:55:09;2.78;;;2.58;;
19621;SDS011;9958;33.196;-97.114;2023-04-24T08:57:38;3.10;;;2.28;;
19621;SDS011;9958;33.196;-97.114;2023-04-24T09:00:07;3.75;;;2.40;;
19621;SDS011;9958;33.196;-97.114;2023-04-24T09:02:36;3.38;;;2.33;;
19621;SDS011;9958;33.196;-97.114;2023-04-24T09:05:07;2.95;;;2.10;;
19621;SDS011;9958;33.196;-97.114;2023-04-24T09:07:35;2.67;;;2.47;;
19621;SDS011;9958;33.196;-97.114;2023-04-24T09:10:11;2.35;;;2.13;;
19621;SDS011;9958;33.196;-97.114;2023-04-24T09:12:41;2.80;;;2.50;;
19621;SDS011;9958;33.196;-97.114;2023-04-24T09:15:11;4.53;;;2.72;;
19621;SDS011;9958;33.196;-97.114;2023-04-24T09:17:39;3.90;;;2.55;;
19621;SDS011;9958;33.196;-97.114;2023-04-24T09:20:08;2.97;;;2.53;;
19621;SDS011;9958;33.196;-97.114;2023-04-24T09:22:36;4.30;;;2.58;;
19621;SDS011;9958;33.196;-97.114;2023-04-24T09:25:06;3.03;;;2.38;;
19621;SDS011;9958;33.196;-97.114;2023-04-24T09:27:41;2.58;;;2.30;;
19621;SDS011;9958;33.196;-97.114;2023-04-24T09:30:10;4.28;;;2.88;;
19621;SDS011;9958;33.196;-97.114;2023-04-24T09:32:39;2.88;;;2.47;;
19621;SDS011;9958;33.196;-97.114;2023-04-24T09:35:08;3.67;;;2.35;;
19621;SDS011;9958;33.196;-97.114;2023-04-24T09:37:39;2.83;;;2.10;;
19621;SDS011;9958;33.196;-97.114;2023-04-24T09:40:10;2.80;;;2.28;;
19621;SDS011;9958;33.196;-97.114;2023-04-24T09:42:46;3.63;;;2.50;;
19621;SDS011;9958;33.196;-97.114;2023-04-24T09:45:20;4.35;;;2.60;;
19621;SDS011;9958;33.196;-97.114;2023-04-24T09:47:51;2.95;;;2.55;;
19621;SDS011;9958;33.196;-97.114;2023-04-24T09:50:20;4.72;;;2.50;;
19621;SDS011;9958;33.196;-97.114;2023-04-24T09:52:56;2.53;;;2.17;;
19621;SDS011;9958;33.196;-97.114;2023-04-24T09:55:26;3.13;;;2.58;;
19621;SDS011;9958;33.196;-97.114;2023-04-24T09:57:55;2.45;;;2.25;;
19621;SDS011;9958;33.196;-97.114;2023-04-24T10:00:26;5.55;;;2.67;;
19621;SDS011;9958;33.196;-97.114;2023-04-24T10:02:58;5.10;;;2.60;;
19621;SDS011;9958;33.196;-97.114;2023-04-24T10:05:28;4.05;;;2.45;;
19621;SDS011;9958;33.196;-97.114;2023-04-24T10:07:59;3.10;;;2.78;;
19621;SDS011;9958;33.196;-97.114;2023-04-24T10:10:31;3.25;;;2.60;;
19621;SDS011;9958;33.196;-97.114;2023-04-24T10:13:07;2.90;;;2.30;;
19621;SDS011;9958;33.196;-97.114;2023-04-24T10:15:36;5.57;;;2.55;;
19621;SDS011;9958;33.196;-97.114;2023-04-24T10:18:06;3.75;;;2.72;;
19621;SDS011;9958;33.196;-97.114;2023-04-24T10:20:36;3.88;;;2.88;;
19621;SDS011;9958;33.196;-97.114;2023-04-24T10:23:05;3.28;;;2.92;;
19621;SDS011;9958;33.196;-97.114;2023-04-24T10:25:35;3.90;;;2.80;;
19621;SDS011;9958;33.196;-97.114;2023-04-24T10:28:04;4.13;;;2.63;;
19621;SDS011;9958;33.196;-97.114;2023-04-24T10:30:33;3.28;;;3.03;;
19621;SDS011;9958;33.196;-97.114;2023-04-24T10:33:02;2.70;;;2.47;;
19621;SDS011;9958;33.196;-97.114;2023-04-24T10:35:32;3.17;;;2.78;;
19621;SDS011;9958;33.196;-97.114;2023-04-24T10:38:03;3.40;;;2.53;;
19621;SDS011;9958;33.196;-97.114;2023-04-24T10:40:36;4.68;;;3.08;;
19621;SDS011;9958;33.196;-97.114;2023-04-24T10:43:05;4.28;;;3.03;;
19621;SDS011;9958;33.196;-97.114;2023-04-24T10:45:36;3.13;;;2.63;;
19621;SDS011;9958;33.196;-97.114;2023-04-24T10:48:05;4.72;;;2.83;;
19621;SDS011;9958;33.196;-97.114;2023-04-24T10:50:43;3.50;;;2.75;;
19621;SDS011;9958;33.196;-97.114;2023-04-24T10:53:12;3.63;;;3.08;;
19621;SDS011;9958;33.196;-97.114;2023-04-24T10:55:44;4.10;;;2.78;;
19621;SDS011;9958;33.196;-97.114;2023-04-24T10:58:13;3.67;;;2.72;;
19621;SDS011;9958;33.196;-97.114;2023-04-24T11:00:42;5.22;;;3.15;;
19621;SDS011;9958;33.196;-97.114;2023-04-24T11:03:24;3.88;;;3.13;;
19621;SDS011;9958;33.196;-97.114;2023-04-24T11:05:58;4.38;;;2.95;;
19621;SDS011;9958;33.196;-97.114;2023-04-24T11:08:29;4.05;;;3.35;;
19621;SDS011;9958;33.196;-97.114;2023-04-24T11:11:07;5.05;;;3.13;;
19621;SDS011;9958;33.196;-97.114;2023-04-24T11:16:40;4.78;;;3.35;;
19621;SDS011;9958;33.196;-97.114;2023-04-24T11:19:17;3.63;;;3.13;;
19621;SDS011;9958;33.196;-97.114;2023-04-24T11:21:53;4.47;;;3.17;;
19621;SDS011;9958;33.196;-97.114;2023-04-24T11:24:24;5.03;;;3.17;;
19621;SDS011;9958;33.196;-97.114;2023-04-24T11:26:55;6.88;;;3.63;;
19621;SDS011;9958;33.196;-97.114;2023-04-24T11:29:44;4.28;;;3.15;;
19621;SDS011;9958;33.196;-97.114;2023-04-24T11:32:18;4.63;;;3.30;;
19621;SDS011;9958;33.196;-97.114;2023-04-24T11:34:52;3.65;;;3.10;;
19621;SDS011;9958;33.196;-97.114;2023-04-24T11:37:22;3.40;;;3.10;;
19621;SDS011;9958;33.196;-97.114;2023-04-24T11:39:52;4.90;;;3.08;;
19621;SDS011;9958;33.196;-97.114;2023-04-24T11:42:22;4.60;;;3.25;;
19621;SDS011;9958;33.196;-97.114;2023-04-24T11:44:52;4.90;;;3.13;;
19621;SDS011;9958;33.196;-97.114;2023-04-24T11:47:27;4.03;;;2.97;;
19621;SDS011;9958;33.196;-97.114;2023-04-24T11:49:57;4.28;;;3.40;;
19621;SDS011;9958;33.196;-97.114;2023-04-24T11:52:26;3.20;;;2.80;;
19621;SDS011;9958;33.196;-97.114;2023-04-24T11:54:54;5.32;;;3.05;;
19621;SDS011;9958;33.196;-97.114;2023-04-24T11:57:25;3.72;;;2.92;;
19621;SDS011;9958;33.196;-97.114;2023-04-24T11:59:58;3.85;;;3.33;;
19621;SDS011;9958;33.196;-97.114;2023-04-24T12:02:27;3.78;;;3.15;;
19621;SDS011;9958;33.196;-97.114;2023-04-24T12:04:56;4.63;;;2.70;;
19621;SDS011;9958;33.196;-97.114;2023-04-24T12:07:24;3.45;;;3.00;;
19621;SDS011;9958;33.196;-97.114;2023-04-24T12:09:56;3.35;;;2.60;;
19621;SDS011;9958;33.196;-97.114;2023-04-24T12:12:28;4.25;;;3.00;;
19621;SDS011;9958;33.196;-97.114;2023-04-24T12:14:56;4.00;;;2.70;;
19621;SDS011;9958;33.196;-97.114;2023-04-24T12:17:26;3.83;;;2.63;;
19621;SDS011;9958;33.196;-97.114;2023-04-24T12:19:58;4.88;;;2.60;;
19621;SDS011;9958;33.196;-97.114;2023-04-24T12:22:28;3.47;;;2.58;;
19621;SDS011;9958;33.196;-97.114;2023-04-24T12:25:10;9.55;;;2.95;;
19621;SDS011;9958;33.196;-97.114;2023-04-24T12:27:40;3.55;;;2.92;;
19621;SDS011;9958;33.196;-97.114;2023-04-24T12:30:10;3.85;;;2.97;;
19621;SDS011;9958;33.196;-97.114;2023-04-24T12:32:43;3.05;;;2.60;;
19621;SDS011;9958;33.196;-97.114;2023-04-24T12:35:12;3.65;;;2.85;;
19621;SDS011;9958;33.196;-97.114;2023-04-24T12:37:42;3.28;;;2.70;;
19621;SDS011;9958;33.196;-97.114;2023-04-24T12:40:11;2.97;;;2.60;;
19621;SDS011;9958;33.196;-97.114;2023-04-24T12:42:43;4.00;;;3.03;;
19621;SDS011;9958;33.196;-97.114;2023-04-24T12:45:12;3.00;;;2.72;;
19621;SDS011;9958;33.196;-97.114;2023-04-24T12:47:41;6.50;;;3.20;;
19621;SDS011;9958;33.196;-97.114;2023-04-24T12:50:11;3.30;;;2.92;;
19621;SDS011;9958;33.196;-97.114;2023-04-24T12:52:40;6.95;;;2.70;;
19621;SDS011;9958;33.196;-97.114;2023-04-24T12:55:09;7.43;;;3.38;;
19621;SDS011;9958;33.196;-97.114;2023-04-24T12:57:39;3.30;;;2.80;;
19621;SDS011;9958;33.196;-97.114;2023-04-24T13:00:09;4.70;;;3.17;;
19621;SDS011;9958;33.196;-97.114;2023-04-24T13:02:38;3.42;;;3.13;;
19621;SDS011;9958;33.196;-97.114;2023-04-24T13:05:06;3.67;;;2.97;;
19621;SDS011;9958;33.196;-97.114;2023-04-24T13:07:36;4.28;;;2.95;;
19621;SDS011;9958;33.196;-97.114;2023-04-24T13:10:05;3.05;;;2.65;;
19621;SDS011;9958;33.196;-97.114;2023-04-24T13:12:34;5.88;;;2.78;;
19621;SDS011;9958;33.196;-97.114;2023-04-24T13:15:03;4.50;;;2.72;;
19621;SDS011;9958;33.196;-97.114;2023-04-24T13:17:33;4.03;;;3.00;;
19621;SDS011;9958;33.196;-97.114;2023-04-24T13:20:02;3.15;;;2.83;;
19621;SDS011;9958;33.196;-97.114;2023-04-24T13:22:31;4.88;;;2.90;;
19621;SDS011;9958;33.196;-97.114;2023-04-24T13:24:59;3.70;;;2.47;;
19621;SDS011;9958;33.196;-97.114;2023-04-24T13:27:28;3.63;;;2.50;;
19621;SDS011;9958;33.196;-97.114;2023-04-24T13:29:56;2.72;;;2.50;;
19621;SDS011;9958;33.196;-97.114;2023-04-24T13:32:24;3.22;;;2.83;;
19621;SDS011;9958;33.196;-97.114;2023-04-24T13:34:55;3.67;;;2.88;;
19621;SDS011;9958;33.196;-97.114;2023-04-24T13:37:24;3.22;;;2.38;;
19621;SDS011;9958;33.196;-97.114;2023-04-24T13:39:52;4.28;;;2.50;;
19621;SDS011;9958;33.196;-97.114;2023-04-24T13:42:21;3.53;;;2.88;;
19621;SDS011;9958;33.196;-97.114;2023-04-24T13:44:49;4.18;;;2.92;;
19621;SDS011;9958;33.196;-97.114;2023-04-24T13:47:17;3.85;;;2.95;;
19621;SDS011;9958;33.196;-97.114;2023-04-24T13:49:46;6.68;;;3.15;;
19621;SDS011;9958;33.196;-97.114;2023-04-24T13:52:16;3.80;;;2.90;;
19621;SDS011;9958;33.196;-97.114;2023-04-24T13:54:45;4.65;;;3.03;;
19621;SDS011;9958;33.196;-97.114;2023-04-24T13:57:13;2.97;;;2.63;;
19621;SDS011;9958;33.196;-97.114;2023-04-24T13:59:42;2.80;;;2.53;;
19621;SDS011;9958;33.196;-97.114;2023-04-24T14:02:11;3.45;;;3.05;;
19621;SDS011;9958;33.196;-97.114;2023-04-24T14:04:39;4.60;;;2.60;;
19621;SDS011;9958;33.196;-97.114;2023-04-24T14:07:08;7.22;;;2.85;;
19621;SDS011;9958;33.196;-97.114;2023-04-24T14:09:37;3.28;;;2.40;;
19621;SDS011;9958;33.196;-97.114;2023-04-24T14:12:06;3.22;;;2.40;;
19621;SDS011;9958;33.196;-97.114;2023-04-24T14:14:34;2.95;;;2.30;;
19621;SDS011;9958;33.196;-97.114;2023-04-24T14:17:02;4.03;;;2.97;;
19621;SDS011;9958;33.196;-97.114;2023-04-24T14:19:31;3.97;;;2.55;;
19621;SDS011;9958;33.196;-97.114;2023-04-24T14:22:00;4.05;;;2.40;;
19621;SDS011;9958;33.196;-97.114;2023-04-24T14:24:28;5.75;;;2.42;;
19621;SDS011;9958;33.196;-97.114;2023-04-24T14:26:58;2.65;;;2.40;;
19621;SDS011;9958;33.196;-97.114;2023-04-24T14:29:27;3.65;;;2.42;;
19621;SDS011;9958;33.196;-97.114;2023-04-24T14:31:55;2.42;;;2.15;;
19621;SDS011;9958;33.196;-97.114;2023-04-24T14:34:23;3.17;;;2.30;;
19621;SDS011;9958;33.196;-97.114;2023-04-24T14:36:52;2.30;;;2.10;;
19621;SDS011;9958;33.196;-97.114;2023-04-24T14:39:21;6.70;;;2.17;;
19621;SDS011;9958;33.196;-97.114;2023-04-24T14:41:49;2.30;;;2.10;;
19621;SDS011;9958;33.196;-97.114;2023-04-24T14:44:19;2.38;;;2.03;;
19621;SDS011;9958;33.196;-97.114;2023-04-24T14:46:48;2.03;;;1.90;;
19621;SDS011;9958;33.196;-97.114;2023-04-24T14:49:16;3.22;;;2.28;;